Decoded Metar for WAAA (UJUNG PANDANG in INDONESIA) (IATA:UPG) | Meteo·Mobile Aviation Weather
aviador You're here:

WAAA Decoded Metar

UJUNG PANDANG in INDONESIA
Report Time2018-11-19 03:30:00
UTC Time2018-11-19 03:51:39
Flight Rules vfr VFR
Wind360° at 05 kt
W.Decomp.*RWY 03: 4.2 kt HW 2.6 kt LCW
RWY 31: 3.3 kt HW 3.7 kt RCW
Visibility9999 m
Phenomena:N/A
Clouds:Scattered 018 Hf
Expected CloudBase > 2,800 ft AGL from Temp-Dew spread
CeilingNone
Temp31°C (ISA +16)
Dew Point24°C (66% RH)
Heat Index36.4°C
QNH1012 hPa
Density Alt2,310 ft
Elevation46 ft
Report Wrong Elevation
Raw Report
METAR WAAA 190330Z 36005KT 300V040 9999 SCT018 31/24 Q1012 NOSIG=

Extra information for WAAA:More info

Metar Taf Metar & Taf Last 4 Metars F.Rules Stats Wind Profile Meteogram Temp Stats Airport Information Weather charts Add Link Nearby VenuesMetar ALERT Operation Metar Decoded Social comments